createdAt,value
2023-02-13T00:00:43.541Z,9.18
2023-02-13T00:03:11.770Z,10.85
2023-02-13T00:05:41.235Z,14.55
2023-02-13T00:08:09.259Z,12.30
2023-02-13T00:10:38.167Z,11.73
2023-02-13T00:13:06.252Z,9.98
2023-02-13T00:15:34.426Z,10.98
2023-02-13T00:18:03.495Z,11.10
2023-02-13T00:20:31.760Z,11.82
2023-02-13T00:23:01.546Z,12.50
2023-02-13T00:25:29.951Z,11.20
2023-02-13T00:27:57.992Z,13.05
2023-02-13T00:30:26.532Z,12.95
2023-02-13T00:32:54.527Z,12.13
2023-02-13T00:35:25.246Z,12.77
2023-02-13T00:37:53.986Z,10.75
2023-02-13T00:40:27.040Z,11.25
2023-02-13T00:42:55.031Z,13.07
2023-02-13T00:45:23.496Z,10.98
2023-02-13T00:47:51.580Z,11.73
2023-02-13T00:50:21.960Z,12.70
2023-02-13T00:52:49.974Z,11.45
2023-02-13T00:55:18.061Z,12.32
2023-02-13T00:57:47.455Z,11.88
2023-02-13T01:00:16.973Z,11.23
2023-02-13T01:02:44.985Z,13.15
2023-02-13T01:05:13.129Z,10.25
2023-02-13T01:07:41.326Z,12.13
2023-02-13T01:10:09.738Z,12.50
2023-02-13T01:12:38.115Z,12.48
2023-02-13T01:15:10.292Z,12.95
2023-02-13T01:17:39.638Z,11.65
2023-02-13T01:20:09.413Z,13.07
2023-02-13T01:22:37.520Z,10.85
2023-02-13T01:25:07.247Z,11.13
2023-02-13T01:27:35.405Z,12.88
2023-02-13T01:30:03.847Z,12.10
2023-02-13T01:32:33.275Z,11.35
2023-02-13T01:35:01.307Z,15.13
2023-02-13T01:37:29.406Z,12.05
2023-02-13T01:39:58.059Z,13.48
2023-02-13T01:42:29.084Z,13.95
2023-02-13T01:44:58.808Z,13.98
2023-02-13T01:47:30.159Z,12.55
2023-02-13T01:50:07.966Z,13.65
2023-02-13T01:52:38.772Z,17.33
2023-02-13T01:55:07.978Z,11.73
2023-02-13T01:57:37.811Z,13.55
2023-02-13T02:00:10.324Z,10.45
2023-02-13T02:02:52.210Z,14.35
2023-02-13T02:05:28.455Z,12.05
2023-02-13T02:07:58.771Z,17.15
2023-02-13T02:10:27.125Z,14.60
2023-02-13T02:13:02.539Z,14.63
2023-02-13T02:15:31.248Z,15.02
2023-02-13T02:17:59.324Z,13.57
2023-02-13T02:20:47.005Z,16.02
2023-02-13T02:23:53.416Z,16.85
2023-02-13T02:26:51.451Z,13.50
2023-02-13T02:29:45.560Z,15.57
2023-02-13T02:32:35.449Z,15.45
2023-02-13T02:35:14.679Z,15.07
2023-02-13T02:38:00.750Z,12.93
2023-02-13T02:40:38.735Z,19.23
2023-02-13T02:43:20.101Z,17.33
2023-02-13T02:45:59.083Z,14.88
2023-02-13T02:48:50.302Z,12.05
2023-02-13T02:51:25.675Z,12.65
2023-02-13T02:54:29.374Z,15.75
2023-02-13T02:57:02.938Z,16.23
2023-02-13T03:00:03.134Z,17.05
2023-02-13T03:02:53.320Z,18.05
2023-02-13T03:05:46.316Z,13.07
2023-02-13T03:08:15.132Z,15.15
2023-02-13T03:11:12.511Z,15.45
2023-02-13T03:13:45.458Z,17.30
2023-02-13T03:16:35.528Z,15.02
2023-02-13T03:19:21.627Z,16.30
2023-02-13T03:22:14.012Z,15.65
2023-02-13T03:24:51.611Z,10.18
2023-02-13T03:27:50.047Z,14.15
2023-02-13T03:30:27.209Z,16.48
2023-02-13T03:33:07.605Z,14.35
2023-02-13T03:35:59.160Z,15.43
2023-02-13T03:38:34.293Z,16.15
2023-02-13T03:41:22.328Z,13.25
2023-02-13T03:44:01.715Z,13.10
2023-02-13T03:46:34.299Z,16.15
2023-02-13T03:49:23.142Z,13.15
2023-02-13T03:51:55.572Z,15.23
2023-02-13T03:54:48.359Z,14.60
2023-02-13T03:57:38.414Z,16.25
2023-02-13T04:00:10.585Z,16.90
2023-02-13T04:02:53.849Z,12.82
2023-02-13T04:05:25.635Z,14.65
2023-02-13T04:07:53.807Z,14.50
2023-02-13T04:10:25.964Z,14.25
2023-02-13T04:13:01.011Z,13.05
2023-02-13T04:15:35.469Z,14.30
2023-02-13T04:18:10.842Z,13.48
2023-02-13T04:20:39.957Z,12.68
2023-02-13T04:23:11.356Z,13.35
2023-02-13T04:25:43.456Z,13.40
2023-02-13T04:28:11.719Z,14.52
2023-02-13T04:30:39.891Z,14.27
2023-02-13T04:33:07.988Z,13.48
2023-02-13T04:35:36.291Z,10.80
2023-02-13T04:38:05.315Z,13.18
2023-02-13T04:40:33.411Z,13.48
2023-02-13T04:43:02.754Z,15.00
2023-02-13T04:45:30.766Z,13.90
2023-02-13T04:47:59.112Z,13.18
2023-02-13T04:50:27.561Z,11.80
2023-02-13T04:52:56.399Z,13.98
2023-02-13T04:55:24.618Z,17.52
2023-02-13T04:57:54.254Z,15.30
2023-02-13T05:00:25.705Z,14.23
2023-02-13T05:02:54.405Z,11.43
2023-02-13T05:05:22.737Z,13.68
2023-02-13T05:07:50.739Z,11.25
2023-02-13T05:10:19.073Z,12.68
2023-02-13T05:12:48.478Z,11.82
2023-02-13T05:15:16.836Z,12.30
2023-02-13T05:17:46.622Z,11.68
2023-02-13T05:20:15.270Z,10.52
2023-02-13T05:23:03.756Z,12.02
2023-02-13T05:25:32.032Z,12.90
2023-02-13T05:28:00.196Z,12.68
2023-02-13T05:30:27.553Z,15.35
2023-02-13T05:32:57.082Z,12.13
2023-02-13T05:35:26.031Z,13.60
2023-02-13T05:37:54.374Z,12.75
2023-02-13T05:40:23.038Z,11.40
2023-02-13T05:42:55.146Z,12.10
2023-02-13T05:45:23.289Z,12.35
2023-02-13T05:47:51.409Z,13.90
2023-02-13T05:50:20.886Z,11.13
2023-02-13T05:52:49.260Z,13.30
2023-02-13T05:55:17.374Z,12.95
2023-02-13T05:57:45.599Z,13.95
2023-02-13T06:00:14.847Z,13.95
2023-02-13T06:02:43.450Z,14.98
2023-02-13T06:05:11.535Z,14.02
2023-02-13T06:07:40.952Z,13.15
2023-02-13T06:10:09.558Z,12.55
2023-02-13T06:12:38.061Z,12.63
2023-02-13T06:15:07.295Z,11.13
2023-02-13T06:17:35.981Z,15.00
2023-02-13T06:20:04.066Z,11.48
2023-02-13T06:22:32.139Z,9.73
2023-02-13T06:25:01.621Z,11.30
2023-02-13T06:27:29.719Z,11.68
2023-02-13T06:29:57.809Z,11.48
2023-02-13T06:32:25.906Z,13.23
2023-02-13T06:34:54.242Z,12.52
2023-02-13T06:37:22.253Z,9.95
2023-02-13T06:39:50.349Z,15.38
2023-02-13T06:42:20.321Z,12.07
2023-02-13T06:44:48.690Z,13.55
2023-02-13T06:47:16.865Z,10.68
2023-02-13T06:49:45.733Z,12.13
2023-02-13T06:52:13.745Z,10.93
2023-02-13T06:54:47.759Z,10.90
2023-02-13T06:57:16.370Z,7.90
2023-02-13T06:59:45.866Z,12.60
2023-02-13T07:02:14.395Z,11.57
2023-02-13T07:04:42.675Z,10.55
2023-02-13T07:07:11.030Z,12.40
2023-02-13T07:09:39.848Z,12.00
2023-02-13T07:12:08.819Z,11.63
2023-02-13T07:14:36.832Z,9.93
2023-02-13T07:17:06.160Z,10.18
2023-02-13T07:19:34.534Z,10.88
2023-02-13T07:22:02.517Z,12.23
2023-02-13T07:24:30.591Z,10.63
2023-02-13T07:26:58.586Z,10.25
2023-02-13T07:29:27.112Z,10.82
2023-02-13T07:31:55.164Z,11.13
2023-02-13T07:34:24.565Z,10.15
2023-02-13T07:36:52.789Z,13.15
2023-02-13T07:39:21.219Z,13.55
2023-02-13T07:41:49.276Z,13.77
2023-02-13T07:44:17.764Z,13.15
2023-02-13T07:46:45.886Z,13.32
2023-02-13T07:49:14.278Z,16.42
2023-02-13T07:51:43.622Z,15.57
2023-02-13T07:54:11.634Z,13.23
2023-02-13T07:56:39.622Z,13.43
2023-02-13T07:59:08.058Z,11.68
2023-02-13T08:01:36.236Z,14.30
2023-02-13T08:04:04.384Z,16.02
2023-02-13T08:06:32.387Z,16.00
2023-02-13T08:09:19.505Z,17.80
2023-02-13T08:11:56.476Z,18.77
2023-02-13T08:14:25.723Z,18.45
2023-02-13T08:16:55.159Z,16.45
2023-02-13T08:19:23.621Z,20.70
2023-02-13T08:21:51.652Z,19.48
2023-02-13T08:24:21.338Z,22.38
2023-02-13T08:26:49.375Z,25.17
2023-02-13T08:29:17.374Z,25.40
2023-02-13T08:31:45.680Z,20.98
2023-02-13T08:34:13.842Z,24.85
2023-02-13T08:36:41.841Z,20.85
2023-02-13T08:39:11.031Z,19.83
2023-02-13T08:41:40.474Z,20.80
2023-02-13T08:44:08.500Z,20.27
2023-02-13T08:46:36.622Z,18.77
2023-02-13T08:49:04.905Z,17.90
2023-02-13T08:51:32.976Z,15.65
2023-02-13T08:54:00.970Z,17.38
2023-02-13T08:56:29.008Z,18.98
2023-02-13T08:58:58.322Z,15.32
2023-02-13T09:01:26.421Z,17.48
2023-02-13T09:03:54.427Z,16.90
2023-02-13T09:06:22.926Z,20.27
2023-02-13T09:08:50.934Z,14.77
2023-02-13T09:11:20.064Z,15.02
2023-02-13T09:13:48.247Z,15.38
2023-02-13T09:16:17.905Z,16.63
2023-02-13T09:18:48.505Z,16.33
2023-02-13T09:21:17.151Z,15.32
2023-02-13T09:23:45.371Z,18.15
2023-02-13T09:26:15.443Z,14.07
2023-02-13T09:28:44.763Z,11.90
2023-02-13T09:31:16.468Z,15.50
2023-02-13T09:33:46.873Z,12.95
2023-02-13T09:36:19.108Z,14.18
2023-02-13T09:38:48.118Z,13.10
2023-02-13T09:41:21.414Z,14.80
2023-02-13T09:43:52.650Z,13.95
2023-02-13T09:46:24.130Z,12.57
2023-02-13T09:48:57.371Z,10.93
2023-02-13T09:51:27.703Z,12.18
2023-02-13T09:53:58.151Z,13.63
2023-02-13T09:56:40.731Z,13.18
2023-02-13T09:59:23.675Z,11.88
2023-02-13T10:01:56.320Z,11.50
2023-02-13T10:04:33.975Z,12.10
2023-02-13T10:07:14.493Z,9.98
2023-02-13T10:09:51.345Z,10.88
2023-02-13T10:12:35.482Z,10.98
2023-02-13T10:15:16.134Z,11.40
2023-02-13T10:17:47.662Z,11.45
2023-02-13T10:20:28.367Z,10.80
2023-02-13T10:23:01.167Z,11.00
2023-02-13T10:25:34.441Z,11.63
2023-02-13T10:28:07.175Z,12.15
2023-02-13T10:30:43.501Z,15.55
2023-02-13T10:33:22.874Z,10.07
2023-02-13T10:36:00.052Z,9.05
2023-02-13T10:38:31.190Z,9.80
2023-02-13T10:41:07.302Z,9.70
2023-02-13T10:43:47.811Z,8.73
2023-02-13T10:46:23.285Z,13.13
2023-02-13T10:49:14.946Z,11.05
2023-02-13T10:51:52.040Z,9.45
2023-02-13T10:54:49.571Z,7.53
2023-02-13T10:57:23.215Z,10.20
2023-02-13T11:00:03.442Z,8.15
2023-02-13T11:02:34.709Z,9.13
2023-02-13T11:05:14.603Z,7.72
2023-02-13T11:07:47.191Z,8.90
2023-02-13T11:10:19.189Z,7.00
2023-02-13T11:12:47.602Z,7.00
2023-02-13T11:15:25.971Z,6.85
2023-02-13T11:17:55.906Z,6.78
2023-02-13T11:20:34.007Z,8.05
2023-02-13T11:23:35.400Z,6.93
2023-02-13T11:26:05.340Z,6.53
2023-02-13T11:28:37.111Z,7.05
2023-02-13T11:31:14.876Z,8.98
2023-02-13T11:33:43.326Z,5.85
2023-02-13T11:36:15.674Z,7.53
2023-02-13T11:38:45.266Z,6.47
2023-02-13T11:41:15.499Z,5.45
2023-02-13T11:43:49.672Z,5.57
2023-02-13T11:46:21.076Z,6.25
2023-02-13T11:49:00.814Z,5.45
2023-02-13T11:51:40.549Z,5.30
2023-02-13T11:54:38.977Z,4.85
2023-02-13T11:57:21.493Z,5.20
2023-02-13T11:59:52.066Z,4.60
2023-02-13T12:02:22.590Z,5.30
2023-02-13T12:04:52.281Z,7.07
2023-02-13T12:07:23.316Z,5.85
2023-02-13T12:10:01.875Z,4.00
2023-02-13T12:12:36.575Z,4.72
2023-02-13T12:15:16.054Z,4.10
2023-02-13T12:17:46.981Z,4.75
2023-02-13T12:20:16.797Z,4.82
2023-02-13T12:23:00.475Z,5.10
2023-02-13T12:25:46.628Z,4.13
2023-02-13T12:28:17.797Z,5.50
2023-02-13T12:31:24.506Z,4.07
2023-02-13T12:34:25.221Z,4.30
2023-02-13T12:37:06.395Z,6.55
2023-02-13T12:39:37.814Z,4.43
2023-02-13T12:42:28.605Z,3.92
2023-02-13T12:45:11.532Z,4.72
2023-02-13T12:47:48.619Z,3.53
2023-02-13T12:50:38.523Z,4.15
2023-02-13T12:53:30.516Z,2.88
2023-02-13T12:56:19.770Z,4.20
2023-02-13T12:59:08.508Z,4.55
2023-02-13T13:01:58.647Z,5.18
2023-02-13T13:04:40.348Z,8.02
2023-02-13T13:07:27.088Z,5.22
2023-02-13T13:10:17.702Z,3.55
2023-02-13T13:12:52.903Z,4.43
2023-02-13T13:15:31.327Z,4.00
2023-02-13T13:18:11.019Z,2.92
2023-02-13T13:21:00.967Z,6.68
2023-02-13T13:23:33.942Z,3.17
2023-02-13T13:26:10.698Z,3.20
2023-02-13T13:28:42.488Z,2.85
2023-02-13T13:31:13.202Z,2.90
2023-02-13T13:33:44.663Z,2.78
2023-02-13T13:36:19.362Z,3.65
2023-02-13T13:39:01.612Z,3.35
2023-02-13T13:41:38.758Z,2.55
2023-02-13T13:44:21.202Z,2.00
2023-02-13T13:46:59.507Z,2.60
2023-02-13T13:49:38.196Z,2.78
2023-02-13T13:52:28.168Z,2.67
2023-02-13T13:54:57.783Z,1.95
2023-02-13T13:57:28.043Z,3.88
2023-02-13T13:59:59.312Z,3.03
2023-02-13T14:02:42.218Z,2.47
2023-02-13T14:05:30.726Z,2.22
2023-02-13T14:08:00.566Z,2.65
2023-02-13T14:11:08.995Z,2.33
2023-02-13T14:13:39.935Z,2.47
2023-02-13T14:16:11.758Z,2.55
2023-02-13T14:18:47.576Z,2.25
2023-02-13T14:21:24.457Z,2.47
2023-02-13T14:23:53.744Z,2.35
2023-02-13T14:26:36.521Z,2.42
2023-02-13T14:29:32.770Z,2.65
2023-02-13T14:32:16.979Z,3.05
2023-02-13T14:34:56.948Z,1.90
2023-02-13T14:37:31.925Z,2.63
2023-02-13T14:40:43.083Z,1.67
2023-02-13T14:43:32.222Z,2.65
2023-02-13T14:46:08.349Z,2.42
2023-02-13T14:48:42.630Z,2.83
2023-02-13T14:51:21.905Z,3.28
2023-02-13T14:53:54.122Z,1.95
2023-02-13T14:56:24.076Z,1.70
2023-02-13T14:58:55.787Z,2.00
2023-02-13T15:01:31.126Z,3.85
2023-02-13T15:04:05.802Z,4.30
2023-02-13T15:06:39.351Z,3.58
2023-02-13T15:09:21.434Z,2.72
2023-02-13T15:11:49.465Z,2.05
2023-02-13T15:14:25.601Z,2.38
2023-02-13T15:17:00.008Z,2.40
2023-02-13T15:19:28.644Z,4.38
2023-02-13T15:22:01.536Z,4.93
2023-02-13T15:24:37.524Z,3.80
2023-02-13T15:27:08.309Z,4.25
2023-02-13T15:29:49.276Z,4.68
2023-02-13T15:32:22.035Z,1.75
2023-02-13T15:34:50.280Z,3.92
2023-02-13T15:37:24.325Z,1.83
2023-02-13T15:39:52.500Z,3.58
2023-02-13T15:42:20.634Z,3.92
2023-02-13T15:44:51.233Z,2.70
2023-02-13T15:47:31.183Z,2.85
2023-02-13T15:49:59.645Z,2.85
2023-02-13T15:52:32.928Z,4.18
2023-02-13T15:55:01.597Z,4.82
2023-02-13T15:57:30.256Z,2.20
2023-02-13T16:00:00.380Z,2.10
2023-02-13T16:02:42.910Z,3.67
2023-02-13T16:05:13.593Z,2.75
2023-02-13T16:07:54.305Z,1.33
2023-02-13T16:10:29.138Z,1.38
2023-02-13T16:12:58.809Z,2.28
2023-02-13T16:15:29.739Z,1.35
2023-02-13T16:17:58.468Z,1.88
2023-02-13T16:20:29.731Z,1.75
2023-02-13T16:23:03.617Z,2.45
2023-02-13T16:25:35.792Z,2.20
2023-02-13T16:28:06.254Z,2.90
2023-02-13T16:30:36.094Z,1.33
2023-02-13T16:33:22.589Z,1.90
2023-02-13T16:35:51.835Z,5.15
2023-02-13T16:38:36.518Z,5.80
2023-02-13T16:41:06.791Z,2.92
2023-02-13T16:43:43.976Z,2.05
2023-02-13T16:46:25.878Z,2.35
2023-02-13T16:49:14.098Z,3.05
2023-02-13T16:51:44.833Z,2.75
2023-02-13T16:54:28.880Z,3.30
2023-02-13T16:57:00.073Z,3.05
2023-02-13T16:59:33.550Z,2.72
2023-02-13T17:02:16.543Z,2.80
2023-02-13T17:04:46.164Z,3.85
2023-02-13T17:07:16.618Z,2.78
2023-02-13T17:09:46.253Z,5.00
2023-02-13T17:12:16.840Z,4.32
2023-02-13T17:14:44.851Z,4.43
2023-02-13T17:17:14.583Z,3.40
2023-02-13T17:19:42.704Z,3.13
2023-02-13T17:22:22.423Z,4.25
2023-02-13T17:24:51.755Z,3.60
2023-02-13T17:27:21.852Z,4.18
2023-02-13T17:29:50.763Z,3.25
2023-02-13T17:32:21.818Z,2.90
2023-02-13T17:34:50.270Z,3.63
2023-02-13T17:37:20.939Z,3.45
2023-02-13T17:39:50.983Z,4.57
2023-02-13T17:42:22.882Z,3.92
2023-02-13T17:44:51.074Z,4.43
2023-02-13T17:47:19.720Z,3.35
2023-02-13T17:49:48.479Z,4.53
2023-02-13T17:52:20.010Z,3.88
2023-02-13T17:54:48.031Z,4.30
2023-02-13T17:57:20.015Z,5.03
2023-02-13T17:59:48.062Z,4.38
2023-02-13T18:02:18.779Z,4.75
2023-02-13T18:04:47.419Z,6.00
2023-02-13T18:07:18.091Z,5.15
2023-02-13T18:09:46.375Z,5.25
2023-02-13T18:12:16.705Z,4.60
2023-02-13T18:14:46.098Z,5.57
2023-02-13T18:17:14.336Z,5.40
2023-02-13T18:19:42.662Z,6.97
2023-02-13T18:22:11.744Z,5.03
2023-02-13T18:24:41.987Z,5.30
2023-02-13T18:27:11.199Z,6.30
2023-02-13T18:29:39.694Z,5.53
2023-02-13T18:32:10.476Z,4.85
2023-02-13T18:34:39.879Z,4.85
2023-02-13T18:37:10.860Z,6.13
2023-02-13T18:39:38.981Z,6.63
2023-02-13T18:42:07.358Z,6.82
2023-02-13T18:44:35.949Z,5.85
2023-02-13T18:47:04.001Z,5.53
2023-02-13T18:49:33.441Z,4.85
2023-02-13T18:52:02.246Z,7.70
2023-02-13T18:54:30.297Z,5.68
2023-02-13T18:56:58.481Z,5.70
2023-02-13T18:59:26.685Z,5.88
2023-02-13T19:01:54.732Z,6.93
2023-02-13T19:04:22.936Z,5.93
2023-02-13T19:06:52.323Z,6.28
2023-02-13T19:09:20.321Z,5.72
2023-02-13T19:11:48.814Z,5.90
2023-02-13T19:14:16.876Z,7.60
2023-02-13T19:16:44.860Z,6.20
2023-02-13T19:19:13.325Z,7.55
2023-02-13T19:21:41.422Z,7.88
2023-02-13T19:24:15.163Z,6.78
2023-02-13T19:26:43.560Z,6.72
2023-02-13T19:29:12.260Z,7.93
2023-02-13T19:31:40.537Z,6.53
2023-02-13T19:34:08.664Z,8.05
2023-02-13T19:36:36.668Z,7.25
2023-02-13T19:39:08.806Z,9.40
2023-02-13T19:41:40.441Z,7.43
2023-02-13T19:44:09.404Z,5.83
2023-02-13T19:46:38.072Z,6.00
2023-02-13T19:49:07.002Z,7.75
2023-02-13T19:51:35.787Z,6.20
2023-02-13T19:54:06.502Z,6.80
2023-02-13T19:56:37.080Z,9.40
2023-02-13T19:59:07.809Z,7.10
2023-02-13T20:01:35.927Z,7.40
2023-02-13T20:04:04.423Z,9.10
2023-02-13T20:06:34.928Z,7.33
2023-02-13T20:09:07.276Z,10.65
2023-02-13T20:11:35.330Z,8.50
2023-02-13T20:14:05.177Z,8.30
2023-02-13T20:16:36.748Z,8.73
2023-02-13T20:19:08.891Z,8.27
2023-02-13T20:21:37.661Z,13.63
2023-02-13T20:24:06.415Z,10.70
2023-02-13T20:26:35.239Z,10.37
2023-02-13T20:29:03.610Z,8.30
2023-02-13T20:31:34.557Z,8.10
2023-02-13T20:34:03.038Z,9.90
2023-02-13T20:36:32.825Z,10.53
2023-02-13T20:39:02.895Z,7.87
2023-02-13T20:41:32.225Z,10.53
2023-02-13T20:44:02.370Z,8.90
2023-02-13T20:46:31.586Z,8.97
2023-02-13T20:49:01.216Z,7.50
2023-02-13T20:51:29.464Z,9.57
2023-02-13T20:53:58.863Z,12.47
2023-02-13T20:59:11.340Z,13.37
2023-02-13T21:01:41.462Z,10.57
2023-02-13T21:04:13.715Z,11.97
2023-02-13T21:06:42.630Z,12.03
2023-02-13T21:09:11.309Z,11.73
2023-02-13T21:11:41.064Z,10.87
2023-02-13T21:14:10.745Z,12.20
2023-02-13T21:16:40.671Z,11.97
2023-02-13T21:19:14.132Z,11.13
2023-02-13T21:21:48.214Z,9.83
2023-02-13T21:24:19.165Z,11.60
2023-02-13T21:26:47.553Z,13.17
2023-02-13T21:29:15.639Z,13.30
2023-02-13T21:31:47.357Z,10.57
2023-02-13T21:34:18.627Z,9.90
2023-02-13T21:36:47.423Z,10.47
2023-02-13T21:39:15.731Z,10.40
2023-02-13T21:41:45.480Z,11.67
2023-02-13T21:44:14.949Z,11.30
2023-02-13T21:46:44.068Z,15.27
2023-02-13T21:49:13.982Z,11.47
2023-02-13T21:51:43.636Z,9.47
2023-02-13T21:54:12.142Z,11.60
2023-02-13T21:56:42.494Z,10.93
2023-02-13T21:59:14.858Z,12.20
2023-02-13T22:01:46.985Z,13.03
2023-02-13T22:04:15.698Z,11.73
2023-02-13T22:06:47.764Z,12.47
2023-02-13T22:09:17.675Z,10.10
2023-02-13T22:11:45.683Z,10.63
2023-02-13T22:14:16.931Z,12.67
2023-02-13T22:16:46.254Z,12.00
2023-02-13T22:19:15.926Z,12.30
2023-02-13T22:21:46.016Z,14.43
2023-02-13T22:24:14.162Z,13.37
2023-02-13T22:26:45.613Z,14.00
2023-02-13T22:29:16.053Z,12.10
2023-02-13T22:31:44.291Z,12.67
2023-02-13T22:34:13.410Z,10.67
2023-02-13T22:36:42.714Z,10.67
2023-02-13T22:39:13.104Z,10.53
2023-02-13T22:41:41.650Z,9.87
2023-02-13T22:44:09.634Z,12.30
2023-02-13T22:46:37.972Z,11.60
2023-02-13T22:49:06.103Z,12.93
2023-02-13T22:51:37.206Z,12.40
2023-02-13T22:54:31.431Z,13.67
2023-02-13T22:56:59.823Z,12.53
2023-02-13T22:59:27.789Z,12.63
2023-02-13T23:01:56.141Z,11.43
2023-02-13T23:04:24.167Z,12.97
2023-02-13T23:06:52.413Z,15.67
2023-02-13T23:09:20.386Z,13.83
2023-02-13T23:12:07.488Z,13.93
2023-02-13T23:14:35.731Z,11.87
2023-02-13T23:17:21.233Z,13.47
2023-02-13T23:19:49.237Z,13.57
2023-02-13T23:22:17.458Z,11.90
2023-02-13T23:24:45.516Z,10.83
2023-02-13T23:27:16.434Z,19.53
2023-02-13T23:29:44.419Z,12.43
2023-02-13T23:32:12.939Z,13.37
2023-02-13T23:34:41.035Z,12.43
2023-02-13T23:37:09.287Z,16.03
2023-02-13T23:39:37.379Z,12.57
2023-02-13T23:42:05.693Z,13.87
2023-02-13T23:44:35.302Z,13.87
2023-02-13T23:47:03.333Z,13.60
2023-02-13T23:49:31.598Z,15.20
2023-02-13T23:52:00.156Z,14.07
2023-02-13T23:54:28.320Z,13.53
2023-02-13T23:56:56.425Z,11.77
2023-02-13T23:59:25.764Z,16.63
